Necedah, Wisconsin
Current Conditions -  °F | °C
As of 10:58 AM on Thursday 30 Oct 2014 (Local Time) from KVOK Reporting Station
Overcast Overcast  
Wind Chill:   Ceiling: 11000
Heat Index:   Visibility: 10mi
Dew Point:   Wind: 6mph
Humidity: 76%   Direction: 240°WSW
Pressure: 30.08"   Gusts: NA
Location:  44.03°N, 90.07°W
Report Text: KVOK 301558Z 24005KT 10SM SCT090 BKN110 OVC150 08/04 A3008 RMK AO2A SLP197
Loading
Personal Weather Stations






























Interactive Weather Map
Tropical Storm Tracking
New forecast layout! Learn more

10-Day Weather Forecast

Advertisements
Track Severe Weather on mobile